createdAt,value
2019-04-05T00:00:03.859Z,37.33
2019-04-05T00:01:03.852Z,37.23
2019-04-05T00:02:03.833Z,37.53
2019-04-05T00:03:03.841Z,37.23
2019-04-05T00:04:03.808Z,37.33
2019-04-05T00:05:03.795Z,37.33
2019-04-05T00:06:03.800Z,37.33
2019-04-05T00:07:03.791Z,37.23
2019-04-05T00:08:03.794Z,37.33
2019-04-05T00:09:03.754Z,37.23
2019-04-05T00:10:03.741Z,37.13
2019-04-05T00:11:03.730Z,37.23
2019-04-05T00:12:03.720Z,37.33
2019-04-05T00:13:03.727Z,37.33
2019-04-05T00:14:03.720Z,36.93
2019-04-05T00:15:14.598Z,37.13
2019-04-05T00:16:04.675Z,36.93
2019-04-05T00:17:03.664Z,37.53
2019-04-05T00:18:03.657Z,37.23
2019-04-05T00:19:03.671Z,37.33
2019-04-05T00:20:03.632Z,37.23
2019-04-05T00:21:03.619Z,37.03
2019-04-05T00:22:03.607Z,37.23
2019-04-05T00:23:03.597Z,37.03
2019-04-05T00:24:03.601Z,37.23
2019-04-05T00:25:03.586Z,37.13
2019-04-05T00:26:03.563Z,37.13
2019-04-05T00:27:03.553Z,37.23
2019-04-05T00:28:03.540Z,37.53
2019-04-05T00:29:03.561Z,37.13
2019-04-05T00:30:03.525Z,37.23
2019-04-05T00:31:03.529Z,37.23
2019-04-05T00:32:03.499Z,37.23
2019-04-05T00:33:03.486Z,37.23
2019-04-05T00:34:03.489Z,37.33
2019-04-05T00:35:03.463Z,37.23
2019-04-05T00:36:03.450Z,37.33
2019-04-05T00:37:03.453Z,37.33
2019-04-05T00:38:03.430Z,37.43
2019-04-05T00:39:03.442Z,37.13
2019-04-05T00:40:03.409Z,37.23
2019-04-05T00:41:03.401Z,37.23
2019-04-05T00:42:03.394Z,37.13
2019-04-05T00:43:03.379Z,37.13
2019-04-05T00:44:03.377Z,37.23
2019-04-05T00:45:03.351Z,37.23
2019-04-05T00:46:03.344Z,37.23
2019-04-05T00:47:03.332Z,37.23
2019-04-05T00:48:03.322Z,37.13
2019-04-05T00:49:03.338Z,37.23
2019-04-05T00:50:03.296Z,37.23
2019-04-05T00:51:03.288Z,37.33
2019-04-05T00:52:03.280Z,37.13
2019-04-05T00:53:03.267Z,37.13
2019-04-05T00:54:03.266Z,37.33
2019-04-05T00:55:03.247Z,37.33
2019-04-05T00:56:03.230Z,37.33
2019-04-05T00:57:03.218Z,37.33
2019-04-05T00:58:03.208Z,37.53
2019-04-05T00:59:03.213Z,37.13
2019-04-05T01:00:03.185Z,37.33
2019-04-05T01:01:03.179Z,37.33
2019-04-05T01:02:03.162Z,37.13
2019-04-05T01:03:03.152Z,37.53
2019-04-05T01:04:03.155Z,37.23
2019-04-05T01:05:03.129Z,37.33
2019-04-05T01:06:03.123Z,37.13
2019-04-05T01:07:03.112Z,37.33
2019-04-05T01:08:03.098Z,37.23
2019-04-05T01:09:03.112Z,37.23
2019-04-05T01:10:03.077Z,37.33
2019-04-05T01:11:03.064Z,37.23
2019-04-05T01:12:03.054Z,37.23
2019-04-05T01:13:03.047Z,37.33
2019-04-05T01:14:03.045Z,37.25
2019-04-05T01:15:03.018Z,37.33
2019-04-05T01:16:03.007Z,37.23
2019-04-05T01:17:02.995Z,37.23
2019-04-05T01:18:02.994Z,37.23
2019-04-05T01:19:04.154Z,37.33
2019-04-05T01:20:02.963Z,37.23
2019-04-05T01:21:02.953Z,37.03
2019-04-05T01:22:02.940Z,37.53
2019-04-05T01:23:02.928Z,37.13
2019-04-05T01:24:02.919Z,37.23
2019-04-05T01:25:02.936Z,37.23
2019-04-05T01:26:02.898Z,37.23
2019-04-05T01:27:02.886Z,37.33
2019-04-05T01:28:02.882Z,37.33
2019-04-05T01:29:02.861Z,37.23
2019-04-05T01:30:02.864Z,37.25
2019-04-05T01:31:02.865Z,37.33
2019-04-05T01:32:02.833Z,37.23
2019-04-05T01:33:02.832Z,37.23
2019-04-05T01:34:05.410Z,37.33
2019-04-05T01:35:02.810Z,37.13
2019-04-05T01:36:02.785Z,37.33
2019-04-05T01:37:02.780Z,37.33
2019-04-05T01:38:02.800Z,37.33
2019-04-05T01:39:02.753Z,37.23
2019-04-05T01:40:02.758Z,37.25
2019-04-05T01:41:02.727Z,37.35
2019-04-05T01:42:02.717Z,37.33
2019-04-05T01:43:02.718Z,37.23
2019-04-05T01:44:02.695Z,37.23
2019-04-05T01:45:02.702Z,37.33
2019-04-05T01:46:02.674Z,37.35
2019-04-05T01:47:02.662Z,37.23
2019-04-05T01:48:02.650Z,37.15
2019-04-05T01:49:02.645Z,37.23
2019-04-05T01:50:02.647Z,37.35
2019-04-05T01:51:02.621Z,37.25
2019-04-05T01:52:02.604Z,37.23
2019-04-05T01:53:02.594Z,37.43
2019-04-05T01:54:02.596Z,37.23
2019-04-05T01:55:02.601Z,37.23
2019-04-05T01:56:02.570Z,37.25
2019-04-05T01:57:02.549Z,37.23
2019-04-05T01:58:02.538Z,37.15
2019-04-05T01:59:02.526Z,37.15
2019-04-05T02:00:02.533Z,37.13
2019-04-05T02:01:02.517Z,37.23
2019-04-05T02:02:02.494Z,37.13
2019-04-05T02:03:02.485Z,37.13
2019-04-05T02:04:02.472Z,37.33
2019-04-05T02:05:02.477Z,37.13
2019-04-05T02:06:02.449Z,37.15
2019-04-05T02:07:02.447Z,37.13
2019-04-05T02:08:02.435Z,37.23
2019-04-05T02:09:02.416Z,37.13
2019-04-05T02:10:02.446Z,37.23
2019-04-05T02:11:02.394Z,37.13
2019-04-05T02:12:02.386Z,36.94
2019-04-05T02:13:02.383Z,37.23
2019-04-05T02:14:02.369Z,37.35
2019-04-05T02:15:02.351Z,37.35
2019-04-05T02:16:06.612Z,37.23
2019-04-05T02:17:02.329Z,37.25
2019-04-05T02:18:02.330Z,37.23
2019-04-05T02:19:02.321Z,37.43
2019-04-05T02:20:02.299Z,37.35
2019-04-05T02:21:02.297Z,37.23
2019-04-05T02:22:02.270Z,37.25
2019-04-05T02:23:02.260Z,37.25
2019-04-05T02:24:02.257Z,37.35
2019-04-05T02:25:02.241Z,37.33
2019-04-05T02:26:02.245Z,37.33
2019-04-05T02:27:02.213Z,37.35
2019-04-05T02:28:02.204Z,37.35
2019-04-05T02:29:02.195Z,37.23
2019-04-05T02:30:02.210Z,37.25
2019-04-05T02:31:02.187Z,37.23
2019-04-05T02:32:02.244Z,37.35
2019-04-05T02:33:02.147Z,37.45
2019-04-05T02:34:02.140Z,37.35
2019-04-05T02:35:02.131Z,37.35
2019-04-05T02:36:02.147Z,37.15
2019-04-05T02:37:02.102Z,37.35
2019-04-05T02:38:02.095Z,37.15
2019-04-05T02:39:02.083Z,37.35
2019-04-05T02:40:02.076Z,37.35
2019-04-05T02:41:02.105Z,37.25
2019-04-05T02:42:02.065Z,37.25
2019-04-05T02:43:02.045Z,37.25
2019-04-05T02:44:02.024Z,37.15
2019-04-05T02:45:02.013Z,37.35
2019-04-05T02:46:02.017Z,37.33
2019-04-05T02:47:01.990Z,37.33
2019-04-05T02:48:01.997Z,37.25
2019-04-05T02:49:01.969Z,37.33
2019-04-05T02:50:01.972Z,37.35
2019-04-05T02:51:01.985Z,37.25
2019-04-05T02:52:01.943Z,36.94
2019-04-05T02:53:01.932Z,37.25
2019-04-05T02:54:01.936Z,37.35
2019-04-05T02:55:01.919Z,37.55
2019-04-05T02:56:03.230Z,37.33
2019-04-05T02:57:01.878Z,37.33
2019-04-05T02:58:01.867Z,37.33
2019-04-05T02:59:01.860Z,37.05
2019-04-05T03:00:01.977Z,37.35
2019-04-05T03:01:01.850Z,37.35
2019-04-05T03:02:01.824Z,37.35
2019-04-05T03:03:01.814Z,37.25
2019-04-05T03:04:01.801Z,37.35
2019-04-05T03:05:01.799Z,37.35
2019-04-05T03:06:01.821Z,37.35
2019-04-05T03:07:01.766Z,37.25
2019-04-05T03:08:01.757Z,37.25
2019-04-05T03:09:01.745Z,37.35
2019-04-05T03:10:01.737Z,37.25
2019-04-05T03:11:01.728Z,37.25
2019-04-05T03:12:01.747Z,37.15
2019-04-05T03:13:01.701Z,37.25
2019-04-05T03:14:01.689Z,37.23
2019-04-05T03:15:01.683Z,37.35
2019-04-05T03:16:01.677Z,37.23
2019-04-05T03:17:01.668Z,37.23
2019-04-05T03:18:01.655Z,37.33
2019-04-05T03:19:01.635Z,37.23
2019-04-05T03:20:01.625Z,37.23
2019-04-05T03:21:01.612Z,37.23
2019-04-05T03:22:01.617Z,37.23
2019-04-05T03:23:01.589Z,37.25
2019-04-05T03:24:01.599Z,37.23
2019-04-05T03:25:01.574Z,37.33
2019-04-05T03:26:01.554Z,37.23
2019-04-05T03:27:01.560Z,37.33
2019-04-05T03:28:01.533Z,37.23
2019-04-05T03:29:01.521Z,37.23
2019-04-05T03:30:01.528Z,37.23
2019-04-05T03:31:01.499Z,37.53
2019-04-05T03:32:01.604Z,37.33
2019-04-05T03:33:01.485Z,37.53
2019-04-05T03:34:01.478Z,36.83
2019-04-05T03:35:01.459Z,36.93
2019-04-05T03:36:01.450Z,37.83
2019-04-05T03:37:01.445Z,38.03
2019-04-05T03:38:01.423Z,37.83
2019-04-05T03:39:01.411Z,38.03
2019-04-05T03:40:01.400Z,38.33
2019-04-05T03:41:01.393Z,38.13
2019-04-05T03:42:01.398Z,37.73
2019-04-05T03:43:01.367Z,37.83
2019-04-05T03:44:01.364Z,38.33
2019-04-05T03:45:01.347Z,37.83
2019-04-05T03:46:01.338Z,37.63
2019-04-05T03:47:01.338Z,37.53
2019-04-05T03:48:01.321Z,37.23
2019-04-05T03:49:01.299Z,37.23
2019-04-05T03:50:01.289Z,36.93
2019-04-05T03:51:01.280Z,36.93
2019-04-05T03:52:01.309Z,36.93
2019-04-05T03:53:01.256Z,37.03
2019-04-05T03:54:01.252Z,36.93
2019-04-05T03:55:01.265Z,36.93
2019-04-05T03:56:01.222Z,37.03
2019-04-05T03:57:01.229Z,37.03
2019-04-05T03:58:01.198Z,37.03
2019-04-05T03:59:01.189Z,37.13
2019-04-05T04:00:01.183Z,37.03
2019-04-05T04:01:01.169Z,37.13
2019-04-05T04:02:01.174Z,36.93
2019-04-05T04:03:01.153Z,37.33
2019-04-05T04:04:01.135Z,37.23
2019-04-05T04:05:01.141Z,37.13
2019-04-05T04:06:01.149Z,37.23
2019-04-05T04:07:01.117Z,37.03
2019-04-05T04:08:01.098Z,36.93
2019-04-05T04:09:01.074Z,37.33
2019-04-05T04:10:01.081Z,37.23
2019-04-05T04:11:01.053Z,37.43
2019-04-05T04:12:01.063Z,37.33
2019-04-05T04:13:01.062Z,37.53
2019-04-05T04:14:01.031Z,37.03
2019-04-05T04:15:01.012Z,36.93
2019-04-05T04:16:00.996Z,37.13
2019-04-05T04:17:12.105Z,36.73
2019-04-05T04:18:01.999Z,37.33
2019-04-05T04:19:00.979Z,36.73
2019-04-05T04:20:00.952Z,36.83
2019-04-05T04:21:00.942Z,37.03
2019-04-05T04:22:00.929Z,36.43
2019-04-05T04:23:00.933Z,36.43
2019-04-05T04:24:00.917Z,36.85
2019-04-05T04:25:00.922Z,36.55
2019-04-05T04:26:00.892Z,36.35
2019-04-05T04:27:00.875Z,35.35
2019-04-05T04:28:00.987Z,35.14
2019-04-05T04:29:00.857Z,35.05
2019-04-05T04:30:00.846Z,35.14
2019-04-05T04:31:00.850Z,34.74
2019-04-05T04:32:00.821Z,35.35
2019-04-05T04:33:00.821Z,34.84
2019-04-05T04:34:00.797Z,34.34
2019-04-05T04:35:00.791Z,35.25
2019-04-05T04:36:00.783Z,35.05
2019-04-05T04:37:00.776Z,35.55
2019-04-05T04:38:00.772Z,34.94
2019-04-05T04:39:00.738Z,35.05
2019-04-05T04:40:00.731Z,35.16
2019-04-05T04:41:00.733Z,34.74
2019-04-05T04:42:00.715Z,34.06
2019-04-05T04:43:00.716Z,34.06
2019-04-05T04:44:00.697Z,34.96
2019-04-05T04:45:11.403Z,34.36
2019-04-05T04:46:01.670Z,34.46
2019-04-05T04:47:00.652Z,34.56
2019-04-05T04:48:00.663Z,34.66
2019-04-05T04:49:00.627Z,34.76
2019-04-05T04:50:00.622Z,34.96
2019-04-05T04:51:00.603Z,34.76
2019-04-05T04:52:00.600Z,34.66
2019-04-05T04:53:00.611Z,34.36
2019-04-05T04:54:00.571Z,33.66
2019-04-05T04:55:00.561Z,34.46
2019-04-05T04:56:00.558Z,33.47
2019-04-05T04:57:00.537Z,34.46
2019-04-05T04:58:00.546Z,33.47
2019-04-05T04:59:00.514Z,33.47
2019-04-05T05:00:00.502Z,33.47
2019-04-05T05:01:00.490Z,34.67
2019-04-05T05:02:00.500Z,34.48
2019-04-05T05:03:00.502Z,34.38
2019-04-05T05:04:00.456Z,34.98
2019-04-05T05:05:00.454Z,34.88
2019-04-05T05:06:00.434Z,34.88
2019-04-05T05:07:00.424Z,34.98
2019-04-05T05:08:00.434Z,35.08
2019-04-05T05:09:00.407Z,34.67
2019-04-05T05:10:03.074Z,34.58
2019-04-05T05:11:00.375Z,34.98
2019-04-05T05:12:00.364Z,34.98
2019-04-05T05:13:00.366Z,34.58
2019-04-05T05:14:00.348Z,34.78
2019-04-05T05:15:00.328Z,34.67
2019-04-05T05:16:00.321Z,34.88
2019-04-05T05:17:00.307Z,34.58
2019-04-05T05:18:00.313Z,34.78
2019-04-05T05:19:00.284Z,35.38
2019-04-05T05:20:00.284Z,34.86
2019-04-05T05:21:00.262Z,34.78
2019-04-05T05:22:00.258Z,35.28
2019-04-05T05:23:00.281Z,35.28
2019-04-05T05:24:00.227Z,34.67
2019-04-05T05:25:00.221Z,35.56
2019-04-05T05:26:00.214Z,34.76
2019-04-05T05:27:00.201Z,34.56
2019-04-05T05:28:00.184Z,34.96
2019-04-05T05:29:00.184Z,34.66
2019-04-05T05:30:00.159Z,35.76
2019-04-05T05:31:00.147Z,35.86
2019-04-05T05:32:00.145Z,35.26
2019-04-05T05:33:00.125Z,34.96
2019-04-05T05:34:00.133Z,34.76
2019-04-05T05:35:02.293Z,35.25
2019-04-05T05:36:00.091Z,35.06
2019-04-05T05:37:00.085Z,35.25
2019-04-05T05:38:00.085Z,34.64
2019-04-05T05:39:00.081Z,34.34
2019-04-05T05:40:00.044Z,34.94
2019-04-05T05:41:00.036Z,34.14
2019-04-05T05:42:00.023Z,34.64
2019-04-05T05:43:00.011Z,34.74
2019-04-05T05:44:00.025Z,34.34
2019-04-05T05:44:59.987Z,33.44
2019-04-05T05:45:59.975Z,33.54
2019-04-05T05:46:59.964Z,34.44
2019-04-05T05:47:59.955Z,33.94
2019-04-05T05:48:59.956Z,33.64
2019-04-05T05:49:59.951Z,33.74
2019-04-05T05:50:59.919Z,33.94
2019-04-05T05:51:59.908Z,33.64
2019-04-05T05:52:59.917Z,34.24
2019-04-05T05:53:59.899Z,33.74
2019-04-05T05:54:59.873Z,34.24
2019-04-05T05:55:59.873Z,33.74
2019-04-05T05:56:59.850Z,34.14
2019-04-05T05:57:59.839Z,34.14
2019-04-05T05:58:59.846Z,33.94
2019-04-05T06:00:00.495Z,34.14
2019-04-05T06:00:59.806Z,33.94
2019-04-05T06:01:59.807Z,33.64
2019-04-05T06:02:59.795Z,33.94
2019-04-05T06:03:59.788Z,34.14
2019-04-05T06:04:59.759Z,33.64
2019-04-05T06:06:04.703Z,33.84
2019-04-05T06:07:00.734Z,34.14
2019-04-05T06:08:00.984Z,33.86
2019-04-05T06:08:59.729Z,34.05
2019-04-05T06:09:59.703Z,33.84
2019-04-05T06:10:59.698Z,33.94
2019-04-05T06:11:59.679Z,33.94
2019-04-05T06:12:59.667Z,34.44
2019-04-05T06:13:59.699Z,33.86
2019-04-05T06:14:59.645Z,34.55
2019-04-05T06:15:59.634Z,34.44
2019-04-05T06:16:59.623Z,34.24
2019-04-05T06:18:04.951Z,34.24
2019-04-05T06:19:00.624Z,34.34
2019-04-05T06:19:59.596Z,33.74
2019-04-05T06:20:59.577Z,33.94
2019-04-05T06:21:59.643Z,33.54
2019-04-05T06:22:59.554Z,33.64
2019-04-05T06:23:59.546Z,34.14
2019-04-05T06:24:59.545Z,33.64
2019-04-05T06:25:59.526Z,33.34
2019-04-05T06:26:59.508Z,33.74
2019-04-05T06:27:59.875Z,33.34
2019-04-05T06:28:59.487Z,33.04
2019-04-05T06:29:59.520Z,33.14
2019-04-05T06:30:59.465Z,33.84
2019-04-05T06:31:59.465Z,33.74
2019-04-05T06:32:59.441Z,33.74
2019-04-05T06:33:59.432Z,33.04
2019-04-05T06:34:59.433Z,33.74
2019-04-05T06:35:59.409Z,33.64
2019-04-05T06:36:59.396Z,33.64
2019-04-05T06:37:59.391Z,33.54
2019-04-05T06:38:59.375Z,33.54
2019-04-05T06:39:59.377Z,33.74
2019-04-05T06:40:59.352Z,33.94
2019-04-05T06:41:59.339Z,34.14
2019-04-05T06:42:59.327Z,33.64
2019-04-05T06:43:59.324Z,34.24
2019-04-05T06:44:59.321Z,34.24
2019-04-05T06:45:59.372Z,34.24
2019-04-05T06:46:59.299Z,33.74
2019-04-05T06:47:59.271Z,34.24
2019-04-05T06:48:59.259Z,34.44
2019-04-05T06:49:59.271Z,34.55
2019-04-05T06:50:59.238Z,34.44
2019-04-05T06:51:59.229Z,34.55
2019-04-05T06:52:59.214Z,33.74
2019-04-05T06:53:59.204Z,33.74
2019-04-05T06:54:59.204Z,33.74
2019-04-05T06:55:59.895Z,34.24
2019-04-05T06:56:59.169Z,34.14
2019-04-05T06:57:59.165Z,34.05
2019-04-05T06:58:59.146Z,34.14
2019-04-05T06:59:59.151Z,34.24
2019-04-05T07:00:59.126Z,34.44
2019-04-05T07:01:59.113Z,33.74
2019-04-05T07:02:59.115Z,33.74
2019-04-05T07:03:59.089Z,34.44
2019-04-05T07:04:59.109Z,34.55
2019-04-05T07:05:59.065Z,33.74
2019-04-05T07:06:59.055Z,33.64
2019-04-05T07:07:59.043Z,33.84
2019-04-05T07:08:59.046Z,33.74
2019-04-05T07:09:59.025Z,33.74
2019-04-05T07:10:59.027Z,34.24
2019-04-05T07:11:59.002Z,33.84
2019-04-05T07:12:59.059Z,33.94
2019-04-05T07:13:58.978Z,34.05
2019-04-05T07:14:58.990Z,33.74
2019-04-05T07:15:58.975Z,33.54
2019-04-05T07:16:58.943Z,33.64
2019-04-05T07:17:58.929Z,33.74
2019-04-05T07:18:58.924Z,34.24
2019-04-05T07:19:58.913Z,33.64
2019-04-05T07:20:58.924Z,33.43
2019-04-05T07:21:58.884Z,33.43
2019-04-05T07:22:58.873Z,34.44
2019-04-05T07:23:58.860Z,34.64
2019-04-05T07:24:58.850Z,34.55
2019-04-05T07:25:58.852Z,34.43
2019-04-05T07:26:58.835Z,34.55
2019-04-05T07:27:58.820Z,34.73
2019-04-05T07:28:58.805Z,34.63
2019-04-05T07:29:58.794Z,34.63
2019-04-05T07:30:58.805Z,34.83
2019-04-05T07:31:58.786Z,34.14
2019-04-05T07:32:58.776Z,34.84
2019-04-05T07:33:58.753Z,34.63
2019-04-05T07:34:58.738Z,34.73
2019-04-05T07:35:58.743Z,34.43
2019-04-05T07:36:58.723Z,34.33
2019-04-05T07:37:58.704Z,34.53
2019-04-05T07:38:58.709Z,34.83
2019-04-05T07:39:58.682Z,34.73
2019-04-05T07:40:58.684Z,34.83
2019-04-05T07:41:58.659Z,34.83
2019-04-05T07:42:58.654Z,34.73
2019-04-05T07:43:58.639Z,34.73
2019-04-05T07:44:58.640Z,34.73
2019-04-05T07:45:58.628Z,34.73
2019-04-05T07:46:58.604Z,34.63
2019-04-05T07:47:58.593Z,34.73
2019-04-05T07:48:58.606Z,34.33
2019-04-05T07:49:58.574Z,34.73
2019-04-05T07:50:58.586Z,34.23
2019-04-05T07:51:58.550Z,34.53
2019-04-05T07:52:58.538Z,34.73
2019-04-05T07:53:58.529Z,34.53
2019-04-05T07:54:58.524Z,34.73
2019-04-05T07:55:58.536Z,34.63
2019-04-05T07:56:58.499Z,34.53
2019-04-05T07:57:58.481Z,34.33
2019-04-05T07:58:58.471Z,34.33
2019-04-05T07:59:58.461Z,34.12
2019-04-05T08:00:58.461Z,34.73
2019-04-05T08:01:58.435Z,34.73
2019-04-05T08:02:58.432Z,34.73
2019-04-05T08:03:58.418Z,34.63
2019-04-05T08:04:58.403Z,34.43
2019-04-05T08:05:58.406Z,34.63
2019-04-05T08:06:58.380Z,34.81
2019-04-05T08:07:58.368Z,34.71
2019-04-05T08:08:58.368Z,34.41
2019-04-05T08:09:58.346Z,34.41
2019-04-05T08:10:58.364Z,34.71
2019-04-05T08:11:58.328Z,34.71
2019-04-05T08:12:58.316Z,34.81
2019-04-05T08:13:58.306Z,34.61
2019-04-05T08:14:58.298Z,35.01
2019-04-05T08:16:01.140Z,34.51
2019-04-05T08:16:58.293Z,35.01
2019-04-05T08:17:58.267Z,34.51
2019-04-05T08:18:58.492Z,34.30
2019-04-05T08:19:58.237Z,34.51
2019-04-05T08:20:58.230Z,34.99
2019-04-05T08:21:58.228Z,34.39
2019-04-05T08:22:58.202Z,34.59
2019-04-05T08:23:58.191Z,34.51
2019-04-05T08:24:58.180Z,34.89
2019-04-05T08:25:58.168Z,34.99
2019-04-05T08:26:58.186Z,34.59
2019-04-05T08:27:58.147Z,34.59
2019-04-05T08:28:58.136Z,34.80
2019-04-05T08:29:58.124Z,34.69
2019-04-05T08:30:58.115Z,34.59
2019-04-05T08:31:58.129Z,34.69
2019-04-05T08:32:58.100Z,34.69
2019-04-05T08:33:58.081Z,34.80
2019-04-05T08:34:58.076Z,34.30
2019-04-05T08:35:58.057Z,34.50
2019-04-05T08:36:58.060Z,34.69
2019-04-05T08:37:58.035Z,34.69
2019-04-05T08:38:58.034Z,33.59
2019-04-05T08:39:58.019Z,34.30
2019-04-05T08:40:58.011Z,34.38
2019-04-05T08:41:58.004Z,34.39
2019-04-05T08:42:57.979Z,33.59
2019-04-05T08:43:57.978Z,34.19
2019-04-05T08:44:57.967Z,34.48
2019-04-05T08:45:57.947Z,33.39
2019-04-05T08:46:57.955Z,34.28
2019-04-05T08:47:57.924Z,33.38
2019-04-05T08:49:10.082Z,33.50
2019-04-05T08:49:58.903Z,33.68
2019-04-05T08:50:57.900Z,34.39
2019-04-05T08:51:57.894Z,33.39
2019-04-05T08:52:57.868Z,34.00
2019-04-05T08:53:57.858Z,33.59
2019-04-05T08:54:57.849Z,33.59
2019-04-05T08:55:57.835Z,33.50
2019-04-05T08:56:57.849Z,33.70
2019-04-05T08:57:57.812Z,34.21
2019-04-05T08:58:57.807Z,34.39
2019-04-05T08:59:57.791Z,34.39
2019-04-05T09:00:57.782Z,34.61
2019-04-05T09:01:57.798Z,34.51
2019-04-05T09:02:57.842Z,34.59
2019-04-05T09:03:57.747Z,34.69
2019-04-05T09:04:57.749Z,34.71
2019-04-05T09:05:57.726Z,34.51
2019-04-05T09:06:57.712Z,34.71
2019-04-05T09:07:57.715Z,34.51
2019-04-05T09:08:57.699Z,34.71
2019-04-05T09:09:57.680Z,34.51
2019-04-05T09:10:57.669Z,34.71
2019-04-05T09:11:57.657Z,34.71
2019-04-05T09:12:57.662Z,34.81
2019-04-05T09:13:57.635Z,34.51
2019-04-05T09:14:57.640Z,34.81
2019-04-05T09:15:57.613Z,34.81
2019-04-05T09:16:57.601Z,34.51
2019-04-05T09:17:57.602Z,35.11
2019-04-05T09:18:57.579Z,34.81
2019-04-05T09:19:57.568Z,34.41
2019-04-05T09:20:57.588Z,34.51
2019-04-05T09:21:57.545Z,34.61
2019-04-05T09:22:57.550Z,34.61
2019-04-05T09:23:59.322Z,34.21
2019-04-05T09:24:57.521Z,34.51
2019-04-05T09:25:57.509Z,34.61
2019-04-05T09:26:57.522Z,34.81
2019-04-05T09:27:57.494Z,34.51
2019-04-05T09:28:57.468Z,35.01
2019-04-05T09:29:57.457Z,34.51
2019-04-05T09:30:57.445Z,34.31
2019-04-05T09:31:57.435Z,34.71
2019-04-05T09:32:57.461Z,34.61
2019-04-05T09:33:57.414Z,34.51
2019-04-05T09:34:57.402Z,34.51
2019-04-05T09:35:57.391Z,34.61
2019-04-05T09:36:57.379Z,34.51
2019-04-05T09:37:57.382Z,34.51
2019-04-05T09:38:57.364Z,34.61
2019-04-05T09:39:57.345Z,34.51
2019-04-05T09:40:57.335Z,34.51
2019-04-05T09:41:57.323Z,34.51
2019-04-05T09:42:57.328Z,35.01
2019-04-05T09:43:57.304Z,34.51
2019-04-05T09:44:57.304Z,34.69
2019-04-05T09:45:57.281Z,34.41
2019-04-05T09:46:57.268Z,34.41
2019-04-05T09:47:57.283Z,35.01
2019-04-05T09:48:57.245Z,34.51
2019-04-05T09:49:57.236Z,34.99
2019-04-05T09:50:57.236Z,34.59
2019-04-05T09:51:57.211Z,35.01
2019-04-05T09:52:57.224Z,35.01
2019-04-05T09:53:57.196Z,35.01
2019-04-05T09:54:57.183Z,34.89
2019-04-05T09:55:57.188Z,34.99
2019-04-05T09:56:57.178Z,35.11
2019-04-05T09:57:57.147Z,34.91
2019-04-05T09:58:57.147Z,35.01
2019-04-05T09:59:57.125Z,35.10
2019-04-05T10:00:57.120Z,35.01
2019-04-05T10:01:57.131Z,35.01
2019-04-05T10:02:57.091Z,34.99
2019-04-05T10:03:57.095Z,35.01
2019-04-05T10:04:57.081Z,35.10
2019-04-05T10:05:57.059Z,35.10
2019-04-05T10:06:57.047Z,35.30
2019-04-05T10:07:57.043Z,35.31
2019-04-05T10:08:57.038Z,34.19
2019-04-05T10:09:57.014Z,34.30
2019-04-05T10:10:57.000Z,34.59
2019-04-05T10:11:56.990Z,34.59
2019-04-05T10:12:56.980Z,34.59
2019-04-05T10:13:56.995Z,34.69
2019-04-05T10:14:56.958Z,34.81
2019-04-05T10:15:56.946Z,35.19
2019-04-05T10:16:56.933Z,35.41
2019-04-05T10:17:56.923Z,34.69
2019-04-05T10:18:56.927Z,34.71
2019-04-05T10:19:56.913Z,34.80
2019-04-05T10:20:56.892Z,35.41
2019-04-05T10:21:56.878Z,35.41
2019-04-05T10:22:56.867Z,35.30
2019-04-05T10:23:56.871Z,35.60
2019-04-05T10:24:56.850Z,35.30
2019-04-05T10:25:56.847Z,35.89
2019-04-05T10:26:56.823Z,35.71
2019-04-05T10:27:56.812Z,35.60
2019-04-05T10:28:56.815Z,35.60
2019-04-05T10:29:56.794Z,35.30
2019-04-05T10:30:56.783Z,35.99
2019-04-05T10:31:56.777Z,35.19
2019-04-05T10:32:56.772Z,35.39
2019-04-05T10:33:56.761Z,35.80
2019-04-05T10:34:56.737Z,36.40
2019-04-05T10:35:56.721Z,36.40
2019-04-05T10:36:56.712Z,36.29
2019-04-05T10:37:58.365Z,36.19
2019-04-05T10:38:56.704Z,36.29
2019-04-05T10:39:56.678Z,36.19
2019-04-05T10:40:56.677Z,35.99
2019-04-05T10:42:03.247Z,36.29
2019-04-05T10:42:57.642Z,36.19
2019-04-05T10:43:58.462Z,35.80
2019-04-05T10:44:56.628Z,36.29
2019-04-05T10:45:56.612Z,35.89
2019-04-05T10:46:56.600Z,36.41
2019-04-05T10:47:56.588Z,35.89
2019-04-05T10:48:56.592Z,36.79
2019-04-05T10:50:03.018Z,36.99
2019-04-05T10:50:57.555Z,36.81
2019-04-05T10:51:56.546Z,36.69
2019-04-05T10:52:56.538Z,36.71
2019-04-05T10:53:56.553Z,36.81
2019-04-05T10:54:57.914Z,37.49
2019-04-05T10:55:56.511Z,37.01
2019-04-05T10:56:56.488Z,36.90
2019-04-05T10:57:56.497Z,37.01
2019-04-05T10:58:56.465Z,37.21
2019-04-05T10:59:56.469Z,37.19
2019-04-05T11:00:56.445Z,36.99
2019-04-05T11:01:56.438Z,37.59
2019-04-05T11:02:56.423Z,37.49
2019-04-05T11:03:56.410Z,37.29
2019-04-05T11:04:56.415Z,36.99
2019-04-05T11:05:56.392Z,36.69
2019-04-05T11:06:56.384Z,37.40
2019-04-05T11:07:56.564Z,37.49
2019-04-05T11:08:56.355Z,37.49
2019-04-05T11:09:56.361Z,37.19
2019-04-05T11:10:56.332Z,37.29
2019-04-05T11:11:56.322Z,37.29
2019-04-05T11:12:56.310Z,36.99
2019-04-05T11:13:56.311Z,37.10
2019-04-05T11:14:56.303Z,37.29
2019-04-05T11:15:56.277Z,37.08
2019-04-05T11:16:58.765Z,37.79
2019-04-05T11:17:56.255Z,37.68
2019-04-05T11:18:56.244Z,37.70
2019-04-05T11:19:56.254Z,37.68
2019-04-05T11:20:56.222Z,37.38
2019-04-05T11:21:56.210Z,36.98
2019-04-05T11:22:56.206Z,36.88
2019-04-05T11:23:56.375Z,36.98
2019-04-05T11:24:56.190Z,36.99
2019-04-05T11:25:56.181Z,36.99
2019-04-05T11:26:56.159Z,36.98
2019-04-05T11:27:56.151Z,36.88
2019-04-05T11:28:56.186Z,36.88
2019-04-05T11:29:57.790Z,37.27
2019-04-05T11:30:56.111Z,37.18
2019-04-05T11:31:57.531Z,37.18
2019-04-05T11:32:56.138Z,37.18
2019-04-05T11:33:56.076Z,37.18
2019-04-05T11:34:56.088Z,36.88
2019-04-05T11:35:57.885Z,37.18
2019-04-05T11:36:56.044Z,37.18
2019-04-05T11:37:56.037Z,37.48
2019-04-05T11:38:56.028Z,37.27
2019-04-05T11:39:56.009Z,37.48
2019-04-05T11:40:56.012Z,37.48
2019-04-05T11:41:55.992Z,37.48
2019-04-05T11:42:55.977Z,36.88
2019-04-05T11:43:55.977Z,37.18
2019-04-05T11:44:55.961Z,37.18
2019-04-05T11:45:55.956Z,37.18
2019-04-05T11:46:55.932Z,37.08
2019-04-05T11:47:57.744Z,37.68
2019-04-05T11:48:55.909Z,37.68
2019-04-05T11:49:55.907Z,37.68
2019-04-05T11:50:55.910Z,37.27
2019-04-05T11:51:55.880Z,37.18
2019-04-05T11:52:55.864Z,37.48
2019-04-05T11:53:55.872Z,37.27
2019-04-05T11:54:55.843Z,37.18
2019-04-05T11:55:55.849Z,37.18
2019-04-05T11:56:55.830Z,37.19
2019-04-05T11:57:55.813Z,36.90
2019-04-05T11:58:55.800Z,36.99
2019-04-05T11:59:55.789Z,37.08
2019-04-05T12:00:55.794Z,37.79
2019-04-05T12:01:55.765Z,37.18
2019-04-05T12:02:55.764Z,37.10
2019-04-05T12:03:55.746Z,37.18
2019-04-05T12:04:55.732Z,37.18
2019-04-05T12:05:55.736Z,37.18
2019-04-05T12:06:55.724Z,36.98
2019-04-05T12:08:00.645Z,36.69
2019-04-05T12:08:56.695Z,37.10
2019-04-05T12:09:55.678Z,36.99
2019-04-05T12:10:55.682Z,37.77
2019-04-05T12:11:55.660Z,36.99
2019-04-05T12:12:55.659Z,37.49
2019-04-05T12:13:55.634Z,37.58
2019-04-05T12:14:55.633Z,36.99
2019-04-05T12:15:58.039Z,36.99
2019-04-05T12:16:55.617Z,37.08
2019-04-05T12:17:55.596Z,37.58
2019-04-05T12:18:55.578Z,36.98
2019-04-05T12:19:55.567Z,36.98
2019-04-05T12:21:00.301Z,37.48
2019-04-05T12:21:56.562Z,37.08
2019-04-05T12:22:55.537Z,37.08
2019-04-05T12:23:55.523Z,37.19
2019-04-05T12:24:55.513Z,37.49
2019-04-05T12:25:55.505Z,36.98
2019-04-05T12:26:55.511Z,37.27
2019-04-05T12:28:05.612Z,37.27
2019-04-05T12:28:56.469Z,37.59
2019-04-05T12:29:55.468Z,37.40
2019-04-05T12:30:55.473Z,37.48
2019-04-05T12:31:55.451Z,37.27
2019-04-05T12:32:55.434Z,36.90
2019-04-05T12:33:55.415Z,37.18
2019-04-05T12:34:55.411Z,37.18
2019-04-05T12:35:56.551Z,36.88
2019-04-05T12:36:55.409Z,36.88
2019-04-05T12:37:56.144Z,36.98
2019-04-05T12:38:55.371Z,36.98
2019-04-05T12:39:55.358Z,36.98
2019-04-05T12:40:55.336Z,36.88
2019-04-05T12:41:55.341Z,36.98
2019-04-05T12:42:55.314Z,36.78
2019-04-05T12:43:55.304Z,36.98
2019-04-05T12:44:55.301Z,36.98
2019-04-05T12:45:55.308Z,36.78
2019-04-05T12:46:55.283Z,36.58
2019-04-05T12:47:55.308Z,36.58
2019-04-05T12:48:55.251Z,36.58
2019-04-05T12:49:55.239Z,36.78
2019-04-05T12:51:00.954Z,36.78
2019-04-05T12:51:56.227Z,36.58